logo
Search for airport 
image banner adimage banner adimage banner ad
image banner ad

ESNL - Lycksele

Located in Lycksele, Sweden

ICAO - ESNL, IATA - LYC

Data provided by Airmate  

General information

Coordinates: N64°32'51" E18°43'4"
Elevation is 705 feet MSL.
Magnetic variation is +8.0° East
View others Airports in Västerbottens län

Operational data

Special qualification required
Current time UTC:
Current local time:
Weather
METAR: ESNL 130520Z AUTO 31005KT 250V340 9999 BKN068/// 06/03 Q1003
View NOTAMs / SUP AIP / TFR affecting this airport [VIEW]
Communications frequencies: [VIEW]

Runways:

RWY identifierQFULength (ft)Width (ft)SurfaceLDA (ft)
14143°6864148ASPH6070
32323°6864148ASPH6568

Airport contact information

Address: Lycksele Sweden

Other aviation service providers

Aviation club (not for profit)

Lycksele Motorflygklubb

Lycksele Motorflygklubb

Satellite view of ESNL